Terminal Aerodrome Forecast
Issued by NWS Mt. Holly, NJ

Home | Current Version | Previous Version | Text Only | Print | Product List | Glossary On
Versions: 1 2 3 4 5 6 7 8 9 10 11 12 13 14 15 16 17 18
000
FTUS41 KPHI 280500 RRA
TAFABE
TAF
KABE 280543Z 2806/2906 15005KT P6SM OVC050
     FM280800 18003KT 3SM -SHRA BR OVC025
     FM281300 28013G23KT P6SM BKN035
     FM282300 30005KT P6SM SCT200=

USA.gov is the U.S. government's official web portal to all federal, state and local government web resources and services.